createdAt,value
2019-05-01T00:00:34.404Z,101005.30
2019-05-01T00:03:22.141Z,101007.45
2019-05-01T00:06:00.035Z,101002.72
2019-05-01T00:08:36.049Z,101007.63
2019-05-01T00:11:12.260Z,101003.19
2019-05-01T00:13:47.452Z,101002.34
2019-05-01T00:16:23.298Z,101004.75
2019-05-01T00:18:59.208Z,100998.20
2019-05-01T00:21:34.612Z,100992.59
2019-05-01T00:24:10.062Z,100987.02
2019-05-01T00:26:45.205Z,100989.53
2019-05-01T00:29:20.674Z,100983.16
2019-05-01T00:31:56.725Z,100982.19
2019-05-01T00:34:31.792Z,100981.31
2019-05-01T00:37:06.962Z,100979.41
2019-05-01T00:39:43.346Z,100977.08
2019-05-01T00:42:18.479Z,100968.88
2019-05-01T00:44:53.875Z,100977.38
2019-05-01T00:47:28.973Z,100964.04
2019-05-01T00:50:06.841Z,100969.06
2019-05-01T00:52:41.915Z,100961.92
2019-05-01T00:55:36.476Z,100958.94
2019-05-01T00:58:23.622Z,100957.96
2019-05-01T01:01:10.299Z,100957.78
2019-05-01T01:03:46.080Z,100951.32
2019-05-01T01:06:21.177Z,100954.70
2019-05-01T01:08:56.239Z,100949.75
2019-05-01T01:11:31.573Z,100945.23
2019-05-01T01:14:06.741Z,100946.11
2019-05-01T01:16:42.872Z,100943.80
2019-05-01T01:19:19.182Z,100942.23
2019-05-01T01:21:55.709Z,100944.17
2019-05-01T01:24:31.162Z,100942.82
2019-05-01T01:27:06.306Z,100942.23
2019-05-01T01:29:41.422Z,100935.41
2019-05-01T01:32:16.851Z,100937.70
2019-05-01T01:34:52.124Z,100931.25
2019-05-01T01:37:27.219Z,100927.56
2019-05-01T01:40:04.538Z,100930.09
2019-05-01T01:42:40.648Z,100929.09
2019-05-01T01:45:35.284Z,100917.63
2019-05-01T01:48:12.463Z,100922.05
2019-05-01T01:50:48.035Z,100914.92
2019-05-01T01:53:23.767Z,100921.88
2019-05-01T01:55:58.966Z,100914.84
2019-05-01T01:58:34.027Z,100913.46
2019-05-01T02:01:28.651Z,100908.73
2019-05-01T02:04:05.404Z,100908.63
2019-05-01T02:06:41.170Z,100905.13
2019-05-01T02:09:16.275Z,100890.28
2019-05-01T02:11:52.365Z,100900.49
2019-05-01T02:14:27.515Z,100900.70
2019-05-01T02:17:02.578Z,100894.03
2019-05-01T02:19:38.387Z,100884.97
2019-05-01T02:22:13.447Z,100889.11
2019-05-01T02:24:48.844Z,100891.05
2019-05-01T02:27:29.031Z,100889.11
2019-05-01T02:30:07.256Z,100881.68
2019-05-01T02:32:42.772Z,100875.61
2019-05-01T02:35:17.907Z,100882.53
2019-05-01T02:37:55.652Z,100886.58
2019-05-01T02:40:42.971Z,100880.30
2019-05-01T02:43:20.087Z,100880.00
2019-05-01T02:45:56.293Z,100882.82
2019-05-01T02:48:33.258Z,100884.05
2019-05-01T02:51:08.828Z,100881.52
2019-05-01T02:53:45.282Z,100875.73
2019-05-01T02:56:39.890Z,100870.59
2019-05-01T02:59:15.314Z,100871.64
2019-05-01T03:01:50.730Z,100860.55
2019-05-01T03:04:26.021Z,100865.02
2019-05-01T03:07:02.584Z,100870.20
2019-05-01T03:09:37.919Z,100862.36
2019-05-01T03:12:14.433Z,100862.06
2019-05-01T03:14:51.890Z,100858.85
2019-05-01T03:17:45.645Z,100860.53
2019-05-01T03:20:25.237Z,100856.78
2019-05-01T03:23:20.249Z,100849.88
2019-05-01T03:25:55.348Z,100849.30
2019-05-01T03:28:30.418Z,100849.88
2019-05-01T03:31:05.965Z,100843.13
2019-05-01T03:33:42.064Z,100844.95
2019-05-01T03:36:17.496Z,100843.42
2019-05-01T03:38:52.722Z,100854.75
2019-05-01T03:41:28.171Z,100855.25
2019-05-01T03:44:04.557Z,100841.94
2019-05-01T03:46:39.655Z,100854.66
2019-05-01T03:49:16.157Z,100847.78
2019-05-01T03:51:51.254Z,100848.91
2019-05-01T03:54:26.623Z,100851.09
2019-05-01T03:57:02.187Z,100852.72
2019-05-01T03:59:38.510Z,100859.31
2019-05-01T04:02:34.388Z,100853.23
2019-05-01T04:05:09.723Z,100844.94
2019-05-01T04:07:45.213Z,100854.86
2019-05-01T04:10:21.674Z,100861.69
2019-05-01T04:12:57.682Z,100861.00
2019-05-01T04:15:32.728Z,100858.54
2019-05-01T04:18:09.416Z,100859.04
2019-05-01T04:20:45.914Z,100865.47
2019-05-01T04:23:21.181Z,100866.59
2019-05-01T04:25:56.414Z,100861.17
2019-05-01T04:28:46.638Z,100868.72
2019-05-01T04:31:26.798Z,100861.06
2019-05-01T04:34:06.938Z,100867.49
2019-05-01T04:36:46.768Z,100856.95
2019-05-01T04:39:22.914Z,100863.69
2019-05-01T04:41:58.970Z,100862.91
2019-05-01T04:44:34.114Z,100857.87
2019-05-01T04:47:09.753Z,100861.03
2019-05-01T04:49:44.817Z,100859.38
2019-05-01T04:52:21.563Z,100858.61
2019-05-01T04:54:57.543Z,100857.64
2019-05-01T04:57:33.071Z,100863.41
2019-05-01T05:00:08.226Z,100867.22
2019-05-01T05:03:03.874Z,100874.27
2019-05-01T05:05:28.523Z,100866.45
2019-05-01T05:08:04.298Z,100871.03
2019-05-01T05:10:39.639Z,100869.14
2019-05-01T05:13:17.355Z,100871.03
2019-05-01T05:15:57.394Z,100876.26
2019-05-01T05:18:32.753Z,100882.65
2019-05-01T05:21:08.619Z,100884.30
2019-05-01T05:23:44.069Z,100879.15
2019-05-01T05:26:20.824Z,100884.84
2019-05-01T05:28:57.679Z,100883.03
2019-05-01T05:31:32.864Z,100877.73
2019-05-01T05:34:11.138Z,100874.61
2019-05-01T05:36:46.794Z,100876.30
2019-05-01T05:39:34.199Z,100878.45
2019-05-01T05:42:09.872Z,100885.11
2019-05-01T05:44:46.532Z,100881.03
2019-05-01T05:47:21.587Z,100883.21
2019-05-01T05:49:57.730Z,100876.15
2019-05-01T05:52:45.493Z,100874.42
2019-05-01T05:55:36.836Z,100866.08
2019-05-01T05:58:14.828Z,100864.17
2019-05-01T06:00:53.134Z,100870.39
2019-05-01T06:03:48.269Z,100874.61
2019-05-01T06:06:28.168Z,100875.22
2019-05-01T06:09:08.926Z,100881.02
2019-05-01T06:12:05.032Z,100881.74
2019-05-01T06:15:02.474Z,100873.88
2019-05-01T06:17:38.186Z,100877.76
2019-05-01T06:20:26.015Z,100872.69
2019-05-01T06:23:10.025Z,100884.44
2019-05-01T06:25:54.284Z,100889.45
2019-05-01T06:28:29.724Z,100889.05
2019-05-01T06:31:06.151Z,100890.02
2019-05-01T06:33:44.362Z,100880.28
2019-05-01T06:36:18.456Z,100886.25
2019-05-01T06:38:54.121Z,100888.14
2019-05-01T06:41:33.850Z,100888.06
2019-05-01T06:44:09.966Z,100883.19
2019-05-01T06:47:05.147Z,100891.39
2019-05-01T06:49:55.350Z,100896.53
2019-05-01T06:52:30.999Z,100896.01
2019-05-01T06:55:07.155Z,100887.35
2019-05-01T06:57:44.095Z,100892.03
2019-05-01T07:00:21.855Z,100885.43
2019-05-01T07:02:58.271Z,100884.80
2019-05-01T07:05:33.339Z,100880.67
2019-05-01T07:08:23.778Z,100888.30
2019-05-01T07:10:48.023Z,100896.95
2019-05-01T07:13:23.101Z,100883.66
2019-05-01T07:16:02.967Z,100886.82
2019-05-01T07:18:37.240Z,100890.73
2019-05-01T07:21:12.329Z,100893.91
2019-05-01T07:23:52.208Z,100895.57
2019-05-01T07:26:24.871Z,100901.18
2019-05-01T07:29:06.072Z,100894.00
2019-05-01T07:31:39.461Z,100897.14
2019-05-01T07:34:16.903Z,100896.66
2019-05-01T07:36:52.186Z,100891.92
2019-05-01T07:39:28.289Z,100892.19
2019-05-01T07:42:14.287Z,100893.74
2019-05-01T07:45:08.235Z,100887.70
2019-05-01T07:47:46.430Z,100898.53
2019-05-01T07:50:24.281Z,100893.31
2019-05-01T07:53:00.207Z,100900.55
2019-05-01T07:55:39.210Z,100899.68
2019-05-01T07:58:16.227Z,100891.86
2019-05-01T08:01:18.456Z,100893.52
2019-05-01T08:03:54.199Z,100903.12
2019-05-01T08:06:29.451Z,100892.80
2019-05-01T08:09:06.439Z,100892.80
2019-05-01T08:11:44.035Z,100897.56
2019-05-01T08:14:20.845Z,100897.21
2019-05-01T08:16:57.316Z,100897.23
2019-05-01T08:19:41.151Z,100897.91
2019-05-01T08:22:18.509Z,100900.58
2019-05-01T08:24:58.562Z,100890.98
2019-05-01T08:27:38.713Z,100896.78
2019-05-01T08:30:22.069Z,100895.63
2019-05-01T08:33:09.856Z,100894.86
2019-05-01T08:35:47.705Z,100887.56
2019-05-01T08:38:22.817Z,100882.88
2019-05-01T08:40:58.875Z,100881.86
2019-05-01T08:43:36.715Z,100881.23
2019-05-01T08:46:21.487Z,100886.70
2019-05-01T08:49:13.711Z,100877.75
2019-05-01T08:51:51.067Z,100883.81
2019-05-01T08:54:38.687Z,100873.55
2019-05-01T08:57:16.128Z,100879.48
2019-05-01T09:00:00.300Z,100878.16
2019-05-01T09:02:36.743Z,100876.84
2019-05-01T09:05:28.883Z,100874.91
2019-05-01T09:07:57.737Z,100876.61
2019-05-01T09:10:34.466Z,100869.67
2019-05-01T09:13:13.999Z,100868.98
2019-05-01T09:15:50.970Z,100870.00
2019-05-01T09:18:33.099Z,100857.81
2019-05-01T09:21:13.228Z,100857.33
2019-05-01T09:23:51.382Z,100865.51
2019-05-01T09:26:30.274Z,100862.93
2019-05-01T09:29:16.078Z,100863.16
2019-05-01T09:31:52.087Z,100860.21
2019-05-01T09:34:29.156Z,100861.80
2019-05-01T09:37:04.786Z,100863.05
2019-05-01T09:39:40.405Z,100861.81
2019-05-01T09:42:22.761Z,100854.52
2019-05-01T09:44:53.009Z,100858.66
2019-05-01T09:47:29.086Z,100847.20
2019-05-01T09:50:08.234Z,100852.38
2019-05-01T09:52:55.121Z,100841.40
2019-05-01T09:55:38.349Z,100844.09
2019-05-01T09:58:13.488Z,100841.42
2019-05-01T10:00:52.655Z,100832.86
2019-05-01T10:03:26.620Z,100825.51
2019-05-01T10:06:05.812Z,100827.59
2019-05-01T10:08:41.937Z,100820.07
2019-05-01T10:11:17.865Z,100820.78
2019-05-01T10:13:53.661Z,100817.63
2019-05-01T10:16:33.240Z,100806.79
2019-05-01T10:19:09.436Z,100807.55
2019-05-01T10:21:45.864Z,100798.67
2019-05-01T10:24:22.244Z,100801.74
2019-05-01T10:27:01.573Z,100803.17
2019-05-01T10:29:47.666Z,100808.34
2019-05-01T10:32:32.800Z,100805.02
2019-05-01T10:35:14.252Z,100801.78
2019-05-01T10:37:47.114Z,100801.92
2019-05-01T10:40:26.994Z,100801.38
2019-05-01T10:43:01.606Z,100802.22
2019-05-01T10:45:37.458Z,100806.13
2019-05-01T10:48:12.704Z,100805.61
2019-05-01T10:50:51.006Z,100805.97
2019-05-01T10:53:43.235Z,100799.32
2019-05-01T10:56:20.732Z,100800.81
2019-05-01T10:58:55.871Z,100791.59
2019-05-01T11:01:45.857Z,100783.84
2019-05-01T11:04:21.996Z,100769.60
2019-05-01T11:06:59.223Z,100769.17
2019-05-01T11:09:34.688Z,100767.84
2019-05-01T11:12:10.838Z,100763.08
2019-05-01T11:14:59.601Z,100756.69
2019-05-01T11:17:36.591Z,100762.22
2019-05-01T11:20:14.268Z,100772.78
2019-05-01T11:22:52.898Z,100761.73
2019-05-01T11:25:28.638Z,100754.95
2019-05-01T11:28:05.088Z,100767.13
2019-05-01T11:30:44.322Z,100759.34
2019-05-01T11:33:24.498Z,100761.94
2019-05-01T11:36:16.708Z,100757.78
2019-05-01T11:39:02.293Z,100753.33
2019-05-01T11:41:47.658Z,100756.52
2019-05-01T11:44:23.220Z,100750.98
2019-05-01T11:46:58.496Z,100747.89
2019-05-01T11:49:33.776Z,100744.16
2019-05-01T11:52:09.942Z,100744.16
2019-05-01T11:54:45.027Z,100735.15
2019-05-01T11:57:20.220Z,100724.52
2019-05-01T11:59:55.342Z,100726.39
2019-05-01T12:02:35.374Z,100724.95
2019-05-01T12:05:13.938Z,100731.94
2019-05-01T12:07:50.141Z,100724.34
2019-05-01T12:10:25.758Z,100721.60
2019-05-01T12:13:01.722Z,100712.55
2019-05-01T12:15:45.530Z,100712.87
2019-05-01T12:18:20.771Z,100852.19
2019-05-01T12:20:57.025Z,100711.19
2019-05-01T12:23:32.473Z,100724.89
2019-05-01T12:26:09.336Z,100688.60
2019-05-01T12:28:45.377Z,100701.64
2019-05-01T12:31:21.652Z,100699.45
2019-05-01T12:33:57.280Z,100703.86
2019-05-01T12:36:36.513Z,100697.01
2019-05-01T12:39:19.381Z,100703.41
2019-05-01T12:41:56.219Z,100699.77
2019-05-01T12:44:32.548Z,100695.48
2019-05-01T12:47:18.336Z,100684.94
2019-05-01T12:49:54.707Z,100668.33
2019-05-01T12:52:38.640Z,100668.33
2019-05-01T12:55:41.725Z,100683.05
2019-05-01T12:58:16.946Z,100681.45
2019-05-01T13:00:55.724Z,100680.34
2019-05-01T13:03:33.624Z,100689.15
2019-05-01T13:06:10.150Z,100686.72
2019-05-01T13:08:45.690Z,100686.41
2019-05-01T13:11:22.594Z,100681.70
2019-05-01T13:14:00.312Z,100672.62
2019-05-01T13:16:44.378Z,100669.17
2019-05-01T13:19:23.947Z,100669.52
2019-05-01T13:22:00.996Z,100656.38
2019-05-01T13:24:38.112Z,100657.33
2019-05-01T13:27:31.346Z,100662.66
2019-05-01T13:30:21.470Z,100652.65
2019-05-01T13:33:00.811Z,100660.72
2019-05-01T13:35:36.437Z,100651.83
2019-05-01T13:38:11.794Z,100642.90
2019-05-01T13:40:47.030Z,100644.09
2019-05-01T13:43:24.465Z,100642.53
2019-05-01T13:46:00.514Z,100642.23
2019-05-01T13:48:37.153Z,100634.38
2019-05-01T13:51:14.989Z,100636.74
2019-05-01T13:53:50.278Z,100636.52
2019-05-01T13:56:28.575Z,100641.03
2019-05-01T13:59:06.125Z,100632.95
2019-05-01T14:01:41.799Z,100630.15
2019-05-01T14:04:21.657Z,100620.06
2019-05-01T14:06:58.326Z,100625.31
2019-05-01T14:09:36.313Z,100628.37
2019-05-01T14:12:13.099Z,100626.87
2019-05-01T14:14:48.938Z,100621.36
2019-05-01T14:17:25.157Z,100615.95
2019-05-01T14:20:03.277Z,100605.45
2019-05-01T14:22:54.580Z,100606.98
2019-05-01T14:25:33.419Z,100618.03
2019-05-01T14:28:11.042Z,100612.41
2019-05-01T14:30:49.875Z,100599.79
2019-05-01T14:33:25.597Z,100592.70
2019-05-01T14:36:05.720Z,100597.50
2019-05-01T14:38:41.126Z,100592.85
2019-05-01T14:41:18.419Z,100585.08
2019-05-01T14:43:53.907Z,100584.52
2019-05-01T14:46:34.816Z,100583.06
2019-05-01T14:49:10.085Z,100579.09
2019-05-01T14:51:47.062Z,100575.08
2019-05-01T14:54:22.793Z,100572.31
2019-05-01T14:56:58.213Z,100576.55
2019-05-01T14:59:37.271Z,100568.83
2019-05-01T15:02:16.432Z,100577.21
2019-05-01T15:04:52.605Z,100567.12
2019-05-01T15:07:43.215Z,100567.12
2019-05-01T15:10:16.096Z,100573.41
2019-05-01T15:12:55.000Z,100573.04
2019-05-01T15:15:35.218Z,100567.42
2019-05-01T15:18:14.011Z,100564.80
2019-05-01T15:20:50.108Z,100555.23
2019-05-01T15:23:26.289Z,100564.80
2019-05-01T15:26:02.154Z,100563.58
2019-05-01T15:28:38.211Z,100552.72
2019-05-01T15:31:14.405Z,100553.67
2019-05-01T15:33:52.236Z,100549.30
2019-05-01T15:36:28.402Z,100545.14
2019-05-01T15:39:05.886Z,100541.36
2019-05-01T15:41:53.394Z,100554.19
2019-05-01T15:44:33.230Z,100548.42
2019-05-01T15:47:09.943Z,100540.24
2019-05-01T15:49:46.586Z,100542.60
2019-05-01T15:52:25.512Z,100539.38
2019-05-01T15:55:04.475Z,100537.58
2019-05-01T15:57:44.129Z,100542.45
2019-05-01T16:00:22.490Z,100537.25
2019-05-01T16:03:00.905Z,100539.34
2019-05-01T16:05:36.362Z,100531.30
2019-05-01T16:08:14.929Z,100532.24
2019-05-01T16:11:08.204Z,100524.66
2019-05-01T16:13:43.676Z,100528.55
2019-05-01T16:16:19.070Z,100531.28
2019-05-01T16:18:56.174Z,100529.75
2019-05-01T16:21:37.872Z,100534.65
2019-05-01T16:24:16.606Z,100532.06
2019-05-01T16:26:52.440Z,100536.22
2019-05-01T16:29:28.875Z,100528.13
2019-05-01T16:32:05.201Z,100535.81
2019-05-01T16:34:52.418Z,100526.97
2019-05-01T16:37:28.861Z,100531.47
2019-05-01T16:40:24.898Z,100530.71
2019-05-01T16:43:01.849Z,100527.36
2019-05-01T16:45:39.744Z,100525.43
2019-05-01T16:48:15.365Z,100524.87
2019-05-01T16:50:51.674Z,100521.71
2019-05-01T16:53:28.134Z,100521.73
2019-05-01T16:56:04.018Z,100514.59
2019-05-01T16:58:41.680Z,100516.61
2019-05-01T17:01:38.104Z,100523.05
2019-05-01T17:04:34.357Z,100516.17
2019-05-01T17:07:16.871Z,100512.86
2019-05-01T17:09:56.620Z,100512.77
2019-05-01T17:12:34.692Z,100513.66
2019-05-01T17:15:09.951Z,100517.70
2019-05-01T17:17:45.166Z,100514.41
2019-05-01T17:20:24.360Z,100523.95
2019-05-01T17:22:59.624Z,100517.80
2019-05-01T17:25:56.119Z,100520.20
2019-05-01T17:28:32.856Z,100512.28
2019-05-01T17:31:08.603Z,100518.34
2019-05-01T17:33:55.610Z,100515.08
2019-05-01T17:36:35.877Z,100520.41
2019-05-01T17:39:11.423Z,100520.45
2019-05-01T17:41:51.786Z,100515.31
2019-05-01T17:44:26.929Z,100522.77
2019-05-01T17:47:02.925Z,100516.88
2019-05-01T17:49:41.074Z,100521.81
2019-05-01T17:52:15.476Z,100521.10
2019-05-01T17:54:51.578Z,100522.10
2019-05-01T17:57:26.800Z,100523.12
2019-05-01T18:00:05.349Z,100519.67
2019-05-01T18:02:44.463Z,100521.64
2019-05-01T18:05:23.571Z,100523.25
2019-05-01T18:08:11.037Z,100519.94
2019-05-01T18:10:46.265Z,100528.42
2019-05-01T18:13:21.355Z,100523.25
2019-05-01T18:15:56.493Z,100527.79
2019-05-01T18:18:32.577Z,100527.04
2019-05-01T18:21:09.340Z,100534.02
2019-05-01T18:24:04.495Z,100519.94
2019-05-01T18:26:46.997Z,100531.77
2019-05-01T18:29:30.286Z,100535.95
2019-05-01T18:32:10.185Z,100530.36
2019-05-01T18:34:46.523Z,100535.89
2019-05-01T18:37:35.156Z,100533.52
2019-05-01T18:40:11.156Z,100532.74
2019-05-01T18:42:46.265Z,100537.49
2019-05-01T18:45:40.705Z,100539.43
2019-05-01T18:48:18.329Z,100535.94
2019-05-01T18:50:55.014Z,100536.15
2019-05-01T18:53:30.876Z,100545.72
2019-05-01T18:56:06.928Z,100548.08
2019-05-01T18:58:42.396Z,100538.30
2019-05-01T19:01:20.070Z,100538.86
2019-05-01T19:03:55.654Z,100542.02
2019-05-01T19:06:40.988Z,100545.90
2019-05-01T19:09:15.153Z,100548.66
2019-05-01T19:11:48.104Z,100548.73
2019-05-01T19:14:28.819Z,100551.62
2019-05-01T19:17:04.262Z,100553.65
2019-05-01T19:19:42.056Z,100555.68
2019-05-01T19:22:18.809Z,100562.48
2019-05-01T19:24:57.116Z,100557.98
2019-05-01T19:27:32.900Z,100560.75
2019-05-01T19:30:14.388Z,100561.89
2019-05-01T19:32:47.781Z,100557.02
2019-05-01T19:35:29.630Z,100559.05
2019-05-01T19:38:02.049Z,100561.61
2019-05-01T19:40:42.970Z,100560.05
2019-05-01T19:43:18.898Z,100560.06
2019-05-01T19:45:55.381Z,100554.72
2019-05-01T19:48:31.542Z,100556.12
2019-05-01T19:51:07.541Z,100544.86
2019-05-01T19:53:51.827Z,100546.50
2019-05-01T19:56:24.914Z,100546.73
2019-05-01T19:59:00.637Z,100552.27
2019-05-01T20:01:38.407Z,100549.86
2019-05-01T20:04:15.126Z,100547.67
2019-05-01T20:06:52.176Z,100545.39
2019-05-01T20:09:31.020Z,100546.00
2019-05-01T20:12:08.647Z,100547.34
2019-05-01T20:14:45.775Z,100548.41
2019-05-01T20:17:22.427Z,100537.81
2019-05-01T20:19:57.987Z,100537.94
2019-05-01T20:22:35.805Z,100540.55
2019-05-01T20:25:14.739Z,100537.28
2019-05-01T20:27:53.064Z,100534.58
2019-05-01T20:30:26.584Z,100532.58
2019-05-01T20:33:03.749Z,100530.38
2019-05-01T20:35:41.264Z,100524.83
2019-05-01T20:38:16.404Z,100523.66
2019-05-01T20:40:52.647Z,100535.05
2019-05-01T20:43:27.783Z,100525.09
2019-05-01T20:46:06.925Z,100527.98
2019-05-01T20:48:41.783Z,100525.00
2019-05-01T20:51:20.035Z,100523.58
2019-05-01T20:53:54.252Z,100519.34
2019-05-01T20:56:39.642Z,100519.43
2019-05-01T20:59:14.716Z,100520.20
2019-05-01T21:01:49.960Z,100516.16
2019-05-01T21:04:27.159Z,100514.23
2019-05-01T21:07:23.623Z,100513.58
2019-05-01T21:10:01.285Z,100512.03
2019-05-01T21:12:37.082Z,100512.03
2019-05-01T21:15:13.317Z,100508.58
2019-05-01T21:17:49.228Z,100516.75
2019-05-01T21:20:26.588Z,100509.36
2019-05-01T21:23:05.976Z,100519.44
2019-05-01T21:25:38.728Z,100521.17
2019-05-01T21:28:14.390Z,100520.41
2019-05-01T21:30:49.480Z,100521.73
2019-05-01T21:33:24.572Z,100522.91
2019-05-01T21:36:03.903Z,100520.02
2019-05-01T21:38:38.428Z,100513.26
2019-05-01T21:41:15.022Z,100510.56
2019-05-01T21:43:50.267Z,100508.55
2019-05-01T21:46:25.941Z,100510.66
2019-05-01T21:49:02.649Z,100511.33
2019-05-01T21:51:42.297Z,100506.70
2019-05-01T21:54:20.514Z,100512.44
2019-05-01T21:56:53.227Z,100507.43
2019-05-01T21:59:28.253Z,100505.50
2019-05-01T22:02:05.438Z,100509.06
2019-05-01T22:04:40.322Z,100503.94
2019-05-01T22:07:15.403Z,100507.22
2019-05-01T22:09:51.701Z,100505.73
2019-05-01T22:12:26.889Z,100504.68
2019-05-01T22:15:11.117Z,100506.20
2019-05-01T22:17:53.046Z,100506.31
2019-05-01T22:20:33.339Z,100495.55
2019-05-01T22:23:11.341Z,100495.03
2019-05-01T22:25:50.941Z,100487.04
2019-05-01T22:28:34.462Z,100487.41
2019-05-01T22:31:21.736Z,100494.41
2019-05-01T22:33:56.900Z,100488.02
2019-05-01T22:36:32.251Z,100489.06
2019-05-01T22:39:08.119Z,100482.03
2019-05-01T22:41:45.161Z,100460.19
2019-05-01T22:44:20.238Z,100460.19
2019-05-01T22:46:55.763Z,100479.77
2019-05-01T22:49:31.154Z,100461.06
2019-05-01T22:52:06.520Z,100461.06
2019-05-01T22:54:44.799Z,100476.39
2019-05-01T22:57:20.425Z,100470.10
2019-05-01T22:59:55.832Z,100468.14
2019-05-01T23:02:32.582Z,100465.54
2019-05-01T23:05:09.837Z,100453.69
2019-05-01T23:07:45.276Z,100462.94
2019-05-01T23:10:21.352Z,100459.34
2019-05-01T23:12:57.366Z,100455.73
2019-05-01T23:15:32.808Z,100459.38
2019-05-01T23:18:10.628Z,100449.59
2019-05-01T23:20:44.626Z,100445.88
2019-05-01T23:23:19.702Z,100443.19
2019-05-01T23:25:56.018Z,100437.70
2019-05-01T23:28:35.011Z,100435.32
2019-05-01T23:31:08.701Z,100428.45
2019-05-01T23:33:45.861Z,100440.46
2019-05-01T23:36:23.602Z,100431.79
2019-05-01T23:38:57.915Z,100434.55
2019-05-01T23:41:45.169Z,100418.98
2019-05-01T23:44:10.038Z,100423.73
2019-05-01T23:46:45.062Z,100413.72
2019-05-01T23:49:21.311Z,100413.67
2019-05-01T23:51:58.595Z,100410.75
2019-05-01T23:54:35.016Z,100403.42
2019-05-01T23:57:10.111Z,100406.29
2019-05-01T23:59:45.146Z,100406.29
